Time;durP1;ratioP1;P1;durP2;ratioP2;P2;SDS_P1;SDS_P2;PMS_P1;PMS_P2;Temp;Humidity;BMP_temperature;BMP_pressure;BME280_temperature;BME280_humidity;BME280_pressure;Samples;Min_cycle;Max_cycle;Signal;HPM_P1;HPM_P2
2022/06/23 00:01:39;;;;;;;31.05;19.88;;;20.80;99.90;;;;;;5051208;28;20382;-56
2022/06/23 00:04:05;;;;;;;33.77;19.13;;;20.80;99.90;;;;;;5050328;28;20887;-56
2022/06/23 00:06:50;;;;;;;34.53;19.00;;;20.80;99.90;;;;;;5051919;28;20420;-56
2022/06/23 00:09:38;;;;;;;30.37;19.27;;;20.60;99.90;;;;;;5050927;28;20373;-56
2022/06/23 00:12:18;;;;;;;30.25;18.33;;;20.60;99.90;;;;;;5050851;28;20393;-55
2022/06/23 00:15:04;;;;;;;38.67;19.47;;;20.60;99.90;;;;;;5051744;28;20398;-56
2022/06/23 00:17:31;;;;;;;36.85;19.85;;;20.50;99.90;;;;;;5050678;28;20404;-55
2022/06/23 00:20:02;;;;;;;37.23;21.63;;;20.20;99.90;;;;;;5051982;28;20396;-53
2022/06/23 00:22:30;;;;;;;37.60;21.25;;;19.90;99.90;;;;;;5051364;28;20778;-53
2022/06/23 00:24:58;;;;;;;37.25;20.90;;;20.00;99.90;;;;;;5051405;28;20440;-53
2022/06/23 00:27:32;;;;;;;32.70;19.20;;;20.10;99.90;;;;;;5050099;28;20392;-53
2022/06/23 00:30:03;;;;;;;33.05;18.40;;;20.00;99.90;;;;;;5051145;28;20397;-53
2022/06/23 00:32:30;;;;;;;33.00;18.63;;;20.10;99.90;;;;;;5050872;28;20463;-54
2022/06/23 00:35:00;;;;;;;33.75;19.20;;;20.10;99.90;;;;;;5051691;28;20389;-53
2022/06/23 00:37:27;;;;;;;39.60;21.27;;;20.20;99.90;;;;;;5050982;28;20393;-53
2022/06/23 00:39:59;;;;;;;37.97;20.73;;;20.30;99.90;;;;;;5051578;28;20392;-53
2022/06/23 00:42:35;;;;;;;39.47;21.13;;;20.20;99.90;;;;;;5050530;28;20377;-53
2022/06/23 00:45:10;;;;;;;40.47;21.30;;;20.10;99.90;;;;;;5050412;28;20471;-55
2022/06/23 00:47:49;;;;;;;37.00;22.25;;;20.10;99.90;;;;;;5050724;28;20394;-53
2022/06/23 00:51:04;;;;;;;43.03;21.30;;;19.90;99.90;;;;;;5049816;28;20398;-53
2022/06/23 00:53:35;;;;;;;38.55;20.77;;;19.90;99.90;;;;;;4968076;28;20419;-53
2022/06/23 00:56:50;;;;;;;35.30;20.07;;;20.00;99.90;;;;;;5044431;28;20410;-56
2022/06/23 00:59:37;;;;;;;37.13;19.52;;;19.80;99.90;;;;;;5030333;28;20414;-53
2022/06/23 01:02:12;;;;;;;33.33;18.85;;;19.80;99.90;;;;;;5036925;28;20397;-53
2022/06/23 01:05:01;;;;;;;35.85;19.77;;;19.80;99.90;;;;;;5050555;28;20409;-53
2022/06/23 01:07:29;;;;;;;36.22;20.40;;;19.80;99.90;;;;;;5048019;28;20879;-53
2022/06/23 01:10:16;;;;;;;34.20;20.10;;;19.90;99.90;;;;;;5050431;28;20450;-53
2022/06/23 01:12:46;;;;;;;34.53;20.27;;;20.00;99.90;;;;;;5050674;28;20400;-54
2022/06/23 01:15:36;;;;;;;40.08;20.45;;;20.00;99.90;;;;;;5049371;28;20408;-53
2022/06/23 01:18:11;;;;;;;37.67;21.20;;;19.90;99.90;;;;;;5049889;28;20459;-55
2022/06/23 01:20:46;;;;;;;41.40;20.20;;;19.90;99.90;;;;;;5050555;28;20490;-53
2022/06/23 01:23:30;;;;;;;38.13;20.70;;;19.80;99.90;;;;;;5049045;28;20405;-53
2022/06/23 01:26:33;;;;;;;33.13;20.40;;;19.80;99.90;;;;;;5049902;28;20433;-53
2022/06/23 01:29:07;;;;;;;37.15;20.85;;;19.70;99.90;;;;;;5050235;28;20413;-53
2022/06/23 01:31:45;;;;;;;36.70;19.98;;;19.70;99.90;;;;;;5031979;28;20398;-53
2022/06/23 01:34:41;;;;;;;37.47;19.08;;;19.70;99.90;;;;;;5031270;28;20445;-54
2022/06/23 01:37:20;;;;;;;34.78;18.98;;;19.70;99.90;;;;;;5024935;28;20404;-53
2022/06/23 01:39:52;;;;;;;30.90;18.20;;;19.60;99.90;;;;;;5050009;28;20857;-53
2022/06/23 01:42:33;;;;;;;30.23;18.63;;;19.60;99.90;;;;;;5048953;28;20389;-53
2022/06/23 01:45:06;;;;;;;33.38;18.20;;;19.40;99.90;;;;;;5031764;28;20562;-53
2022/06/23 01:47:47;;;;;;;32.38;18.20;;;19.20;99.90;;;;;;5049543;28;20755;-53
2022/06/23 01:50:12;;;;;;;34.90;18.00;;;19.30;99.90;;;;;;5049229;28;20397;-53
2022/06/23 01:52:39;;;;;;;34.03;17.20;;;19.30;99.90;;;;;;5049844;28;20724;-53
2022/06/23 01:55:24;;;;;;;32.20;16.08;;;19.30;99.90;;;;;;5048588;28;21156;-53
2022/06/23 01:57:57;;;;;;;28.65;16.42;;;19.30;99.90;;;;;;5050344;28;20696;-53
2022/06/23 02:00:26;;;;;;;28.08;14.50;;;19.20;99.90;;;;;;5049162;28;20472;-53
2022/06/23 02:03:03;;;;;;;32.33;15.60;;;19.30;99.90;;;;;;5049174;28;20817;-53
2022/06/23 02:05:35;;;;;;;27.45;13.68;;;19.30;99.90;;;;;;5049306;28;20398;-53
2022/06/23 02:08:31;;;;;;;29.13;14.70;;;19.30;99.90;;;;;;5029967;28;20478;-54
2022/06/23 02:11:19;;;;;;;29.27;14.60;;;19.30;99.90;;;;;;5036848;28;20871;-53
2022/06/23 02:13:47;;;;;;;23.60;13.45;;;19.30;99.90;;;;;;5049637;28;20398;-53
2022/06/23 02:16:19;;;;;;;28.10;14.52;;;19.30;99.90;;;;;;5048373;28;20417;-53
2022/06/23 02:18:50;;;;;;;25.88;13.30;;;19.20;99.90;;;;;;5049128;28;20422;-53
2022/06/23 02:21:18;;;;;;;22.98;12.73;;;19.20;99.90;;;;;;5048704;28;20890;-54
2022/06/23 02:24:21;;;;;;;20.33;11.32;;;19.20;99.90;;;;;;5049228;28;20436;-53
2022/06/23 02:27:12;;;;;;;26.02;12.95;;;19.20;99.90;;;;;;5049381;28;20813;-54
2022/06/23 02:30:06;;;;;;;25.95;12.95;;;19.20;99.90;;;;;;5049113;28;20985;-53
2022/06/23 02:32:43;;;;;;;26.83;14.00;;;19.10;99.90;;;;;;5048927;28;20408;-53
2022/06/23 02:35:19;;;;;;;23.90;13.50;;;19.20;99.90;;;;;;5048829;28;20481;-53
2022/06/23 02:38:07;;;;;;;25.60;12.68;;;19.20;99.90;;;;;;5049411;28;20389;-54
2022/06/23 02:40:43;;;;;;;26.67;13.38;;;19.20;99.90;;;;;;5049223;28;20401;-53
2022/06/23 02:43:13;;;;;;;29.02;13.50;;;19.10;99.90;;;;;;5048665;28;20393;-53
2022/06/23 02:46:16;;;;;;;25.02;12.60;;;19.00;99.90;;;;;;5049071;28;20539;-53
2022/06/23 02:49:06;;;;;;;23.05;12.80;;;19.70;99.90;;;;;;5050001;28;20382;-53
2022/06/23 02:51:50;;;;;;;25.27;12.67;;;18.70;99.90;;;;;;5042835;28;20385;-53
2022/06/23 02:54:44;;;;;;;23.73;12.65;;;18.70;99.90;;;;;;5030754;28;20742;-53
2022/06/23 02:57:32;;;;;;;22.08;11.32;;;18.60;99.90;;;;;;5048286;28;20452;-53
2022/06/23 03:00:15;;;;;;;19.98;10.90;;;18.80;99.90;;;;;;5048869;28;20397;-53
2022/06/23 03:02:57;;;;;;;22.98;12.38;;;18.70;99.90;;;;;;5048588;28;20393;-53
2022/06/23 03:05:47;;;;;;;22.90;12.57;;;18.60;99.90;;;;;;5048092;28;20522;-53
2022/06/23 03:08:19;;;;;;;23.17;11.10;;;18.60;99.90;;;;;;5032039;28;20417;-53
2022/06/23 03:11:05;;;;;;;28.65;10.70;;;18.50;99.90;;;;;;5048717;28;20401;-53
2022/06/23 03:13:34;;;;;;;23.80;11.20;;;18.60;99.90;;;;;;5031043;28;20448;-53
2022/06/23 03:16:21;;;;;;;21.55;10.60;;;18.50;99.90;;;;;;5049198;28;20389;-53
2022/06/23 03:18:59;;;;;;;18.88;10.65;;;18.60;99.90;;;;;;5049477;28;20431;-53
2022/06/23 03:21:47;;;;;;;20.52;11.27;;;18.50;99.90;;;;;;5032162;28;20671;-53
2022/06/23 03:24:23;;;;;;;18.88;10.35;;;18.70;99.90;;;;;;5034343;28;20502;-53
2022/06/23 03:26:59;;;;;;;20.00;9.82;;;18.70;99.90;;;;;;5052183;28;20393;-53
2022/06/23 03:29:32;;;;;;;24.40;10.87;;;18.70;99.90;;;;;;5052176;28;20400;-53
2022/06/23 03:32:12;;;;;;;24.30;11.07;;;18.70;99.90;;;;;;5052124;28;20755;-53
2022/06/23 03:34:49;;;;;;;19.13;9.20;;;18.70;99.90;;;;;;5051931;28;20408;-53
2022/06/23 03:37:25;;;;;;;22.48;10.57;;;18.70;99.90;;;;;;5051504;28;20401;-53
2022/06/23 03:42:52;;;;;;;18.13;9.43;;;18.70;99.90;;;;;;5052098;28;20865;-53
2022/06/23 03:45:54;;;;;;;18.20;9.57;;;18.80;99.90;;;;;;5034956;28;20441;-53
2022/06/23 03:48:29;;;;;;;19.27;10.10;;;18.80;99.90;;;;;;5009173;28;20405;-54
2022/06/23 03:51:25;;;;;;;20.85;10.00;;;18.90;99.90;;;;;;5052167;28;20404;-54
2022/06/23 03:54:01;;;;;;;22.10;10.47;;;19.00;99.90;;;;;;5051867;28;20878;-54
2022/06/23 03:56:35;;;;;;;22.33;10.83;;;19.20;99.90;;;;;;5036577;28;20791;-54
2022/06/23 03:59:24;;;;;;;19.45;10.45;;;19.20;99.90;;;;;;5051842;28;20906;-53
2022/06/23 04:01:52;;;;;;;22.30;11.00;;;19.10;99.90;;;;;;5052008;28;20488;-54
2022/06/23 04:04:22;;;;;;;20.42;9.95;;;19.10;99.90;;;;;;5051193;28;20397;-54
2022/06/23 04:06:50;;;;;;;25.33;10.60;;;19.20;99.90;;;;;;5051416;28;20385;-54
2022/06/23 04:09:28;;;;;;;22.98;11.38;;;19.40;99.90;;;;;;5051050;28;20779;-54
2022/06/23 04:12:04;;;;;;;20.40;10.43;;;19.50;99.90;;;;;;5052135;28;20390;-53
2022/06/23 04:14:51;;;;;;;20.75;10.20;;;19.40;99.90;;;;;;5052216;28;20397;-53
2022/06/23 04:17:45;;;;;;;26.13;11.60;;;19.40;99.90;;;;;;5040761;28;20855;-53
2022/06/23 04:20:15;;;;;;;21.00;10.70;;;19.40;99.90;;;;;;5050593;28;20893;-53
2022/06/23 04:23:03;;;;;;;19.35;10.50;;;19.40;99.90;;;;;;5051489;28;20413;-57
2022/06/23 04:25:50;;;;;;;21.63;10.77;;;19.40;99.90;;;;;;5050952;28;20918;-52
2022/06/23 04:28:39;;;;;;;17.67;10.02;;;19.50;99.90;;;;;;5051181;28;20389;-53
2022/06/23 04:31:07;;;;;;;20.45;10.57;;;19.50;99.90;;;;;;5035145;28;20876;-53
2022/06/23 04:33:38;;;;;;;21.83;10.30;;;19.50;99.90;;;;;;5051769;28;20381;-54
2022/06/23 04:36:06;;;;;;;20.63;10.48;;;19.60;99.90;;;;;;5050397;28;20397;-54
2022/06/23 04:38:33;;;;;;;20.35;9.70;;;19.70;99.90;;;;;;5050720;28;20434;-54
2022/06/23 04:41:05;;;;;;;20.92;10.27;;;19.70;99.90;;;;;;5051377;28;20420;-53
2022/06/23 04:43:36;;;;;;;19.00;10.05;;;19.80;99.90;;;;;;5051427;28;20874;-55
2022/06/23 04:46:31;;;;;;;20.33;9.55;;;19.80;99.90;;;;;;5051657;28;20398;-57
2022/06/23 04:49:12;;;;;;;18.25;9.20;;;19.80;99.90;;;;;;5048087;28;20490;-55
2022/06/23 04:51:53;;;;;;;25.40;10.73;;;19.80;99.90;;;;;;5050881;28;20484;-54
2022/06/23 04:54:31;;;;;;;22.30;10.00;;;19.70;99.90;;;;;;5050571;28;20393;-53
2022/06/23 04:57:08;;;;;;;21.48;9.85;;;19.70;99.90;;;;;;5049688;28;20401;-53
2022/06/23 04:59:51;;;;;;;21.27;9.32;;;19.70;99.90;;;;;;5050745;28;20384;-55
2022/06/23 05:02:26;;;;;;;20.58;9.30;;;19.90;99.90;;;;;;5049982;28;20426;-54
2022/06/23 05:05:32;;;;;;;18.70;8.38;;;20.60;99.90;;;;;;5050488;28;20469;-54
2022/06/23 05:08:09;;;;;;;17.25;7.13;;;21.80;70.40;;;;;;5005255;28;20852;-54
2022/06/23 05:10:51;;;;;;;17.05;7.40;;;22.80;1.00;;;;;;5050736;28;20389;-54
2022/06/23 05:13:23;;;;;;;17.00;6.78;;;23.40;1.00;;;;;;5050132;28;20424;-54
2022/06/23 05:16:01;;;;;;;14.82;6.32;;;24.30;99.90;;;;;;5050961;28;20394;-54
2022/06/23 05:18:48;;;;;;;10.75;5.40;;;25.10;1.00;;;;;;5049019;28;20478;-55
2022/06/23 05:21:29;;;;;;;12.45;6.18;;;25.70;99.90;;;;;;5048824;28;20867;-55
2022/06/23 05:24:06;;;;;;;13.50;5.78;;;26.10;1.00;;;;;;5050023;28;20527;-55
2022/06/23 05:26:59;;;;;;;13.43;6.10;;;26.70;1.00;;;;;;5053163;28;20488;-55
2022/06/23 05:29:35;;;;;;;16.13;5.55;;;28.00;99.90;;;;;;5054191;28;20400;-55
2022/06/23 05:32:06;;;;;;;15.02;7.88;;;28.80;99.90;;;;;;5050655;28;20381;-55
2022/06/23 05:34:36;;;;;;;15.97;7.63;;;29.50;17.60;;;;;;5050728;28;20806;-55
2022/06/23 05:37:22;;;;;;;14.38;8.07;;;30.60;1.00;;;;;;5050217;28;20378;-55
2022/06/23 05:40:26;;;;;;;13.63;6.75;;;30.60;1.00;;;;;;5050566;28;20377;-55
2022/06/23 05:42:55;;;;;;;13.15;5.70;;;31.10;1.00;;;;;;5007552;28;20397;-55
2022/06/23 05:45:28;;;;;;;14.88;6.78;;;30.80;1.00;;;;;;5041374;28;20422;-55
2022/06/23 05:47:55;;;;;;;13.50;7.18;;;31.00;1.00;;;;;;5050756;28;20413;-55
2022/06/23 05:50:29;;;;;;;17.05;10.27;;;31.70;1.00;;;;;;5049616;28;20366;-55
2022/06/23 05:53:11;;;;;;;15.38;11.65;;;32.50;1.00;;;;;;5050099;28;20758;-55
2022/06/23 05:55:42;;;;;;;16.90;11.85;;;32.80;1.00;;;;;;5050432;28;20377;-55
2022/06/23 05:58:43;;;;;;;14.80;9.47;;;32.60;1.00;;;;;;5031288;28;20450;-60
2022/06/23 06:01:45;;;;;;;17.02;10.20;;;32.30;1.00;;;;;;5047822;28;20528;-62
2022/06/23 06:04:34;;;;;;;17.60;8.43;;;32.50;1.00;;;;;;5045883;28;20474;-60
2022/06/23 06:07:00;;;;;;;14.15;6.90;;;32.70;1.00;;;;;;5036630;28;20502;-55
2022/06/23 06:09:37;;;;;;;14.33;6.40;;;32.90;1.00;;;;;;5049560;28;20393;-55
2022/06/23 06:12:12;;;;;;;14.07;7.45;;;33.30;1.00;;;;;;5049850;28;20906;-56
2022/06/23 06:14:46;;;;;;;17.05;6.38;;;33.50;1.00;;;;;;5050236;28;20373;-56
2022/06/23 06:17:21;;;;;;;16.42;7.43;;;33.50;1.00;;;;;;5049052;28;20812;-59
2022/06/23 06:19:48;;;;;;;18.63;7.30;;;33.20;1.00;;;;;;5032078;28;20387;-56
2022/06/23 06:22:34;;;;;;;14.30;6.20;;;33.30;1.00;;;;;;5048781;28;20404;-56
2022/06/23 06:25:02;;;;;;;15.48;8.45;;;34.10;1.00;;;;;;5048441;28;20421;-55
2022/06/23 06:27:28;;;;;;;15.00;8.48;;;;;;;;;;5049451;28;20377;-55
2022/06/23 06:29:55;;;;;;;17.57;8.03;;;34.70;1.00;;;;;;5048354;28;20389;-56
2022/06/23 06:32:24;;;;;;;13.52;5.68;;;;;;;;;;5048553;28;20473;-56
2022/06/23 06:35:05;;;;;;;15.82;6.30;;;;;;;;;;5048823;28;20466;-56
2022/06/23 06:37:35;;;;;;;16.95;8.98;;;35.80;99.90;;;;;;5049353;28;20464;-56
2022/06/23 06:40:03;;;;;;;19.45;6.50;;;;;;;;;;5049265;28;20381;-56
2022/06/23 06:42:41;;;;;;;15.20;9.20;;;37.00;99.90;;;;;;5049063;28;20866;-56
2022/06/23 06:45:11;;;;;;;16.45;10.38;;;36.50;95.50;;;;;;5032703;28;20420;-57
2022/06/23 06:47:38;;;;;;;16.83;9.60;;;35.70;99.90;;;;;;5049100;28;21178;-56
2022/06/23 06:50:34;;;;;;;16.55;10.20;;;35.80;50.00;;;;;;5049870;28;20419;-56
2022/06/23 06:53:06;;;;;;;13.82;8.95;;;36.00;1.00;;;;;;5049432;28;20902;-56
2022/06/23 06:55:38;;;;;;;14.93;9.40;;;36.60;1.00;;;;;;5052260;28;20759;-56
2022/06/23 06:58:09;;;;;;;20.30;9.82;;;36.40;1.00;;;;;;5053191;28;20456;-56
2022/06/23 07:00:50;;;;;;;16.40;9.60;;;36.60;1.00;;;;;;5052017;28;20933;-56
2022/06/23 07:03:21;;;;;;;16.25;10.50;;;37.30;1.00;;;;;;5052325;28;20478;-56
2022/06/23 07:06:04;;;;;;;12.38;8.80;;;37.40;1.00;;;;;;5053029;28;20385;-56
2022/06/23 07:08:42;;;;;;;15.33;11.00;;;36.50;1.00;;;;;;5052309;28;20389;-56
2022/06/23 07:11:16;;;;;;;17.17;7.47;;;36.80;1.00;;;;;;5052705;28;20374;-57
2022/06/23 07:14:02;;;;;;;12.88;6.95;;;36.00;1.00;;;;;;5053534;28;20388;-56
2022/06/23 07:16:40;;;;;;;18.85;10.90;;;35.90;1.00;;;;;;5051667;28;20389;-56
2022/06/23 07:19:15;;;;;;;16.90;10.77;;;36.90;1.00;;;;;;5053472;28;20381;-56
2022/06/23 07:21:55;;;;;;;17.88;11.65;;;36.00;1.00;;;;;;5034831;28;20719;-56
2022/06/23 07:24:33;;;;;;;17.90;11.23;;;34.70;1.00;;;;;;5051715;28;20445;-56
2022/06/23 07:27:04;;;;;;;20.23;10.63;;;33.20;1.00;;;;;;5052316;28;20789;-56
2022/06/23 07:29:40;;;;;;;14.38;8.90;;;33.50;1.00;;;;;;5052401;28;20381;-56
2022/06/23 07:32:14;;;;;;;15.65;10.95;;;35.00;1.00;;;;;;5034846;28;20454;-56
2022/06/23 07:35:00;;;;;;;19.60;11.45;;;;;;;;;;5052402;28;20789;-56
2022/06/23 07:37:29;;;;;;;14.17;8.60;;;;;;;;;;5051345;28;20384;-56
2022/06/23 07:40:06;;;;;;;11.02;5.35;;;38.30;99.90;;;;;;5052371;28;20396;-56
2022/06/23 07:42:47;;;;;;;14.07;6.43;;;38.50;99.90;;;;;;5051768;28;20865;-56
2022/06/23 07:45:23;;;;;;;16.50;5.70;;;38.70;99.90;;;;;;5051842;28;20417;-56
2022/06/23 07:47:49;;;;;;;14.68;4.80;;;38.80;99.90;;;;;;5052397;28;20545;-56
2022/06/23 07:50:15;;;;;;;12.35;4.68;;;38.10;99.90;;;;;;5033596;28;20424;-56
2022/06/23 07:52:42;;;;;;;14.00;4.60;;;37.90;99.90;;;;;;5052112;28;20389;-56
2022/06/23 07:55:24;;;;;;;13.70;5.40;;;37.50;99.90;;;;;;5052017;28;20487;-58
2022/06/23 07:57:50;;;;;;;14.73;5.00;;;37.40;99.90;;;;;;5052314;28;20473;-56
2022/06/23 08:00:17;;;;;;;11.20;4.90;;;37.60;99.90;;;;;;5051686;28;20456;-56
2022/06/23 08:03:00;;;;;;;12.68;5.35;;;38.40;99.90;;;;;;5052408;28;20412;-56
2022/06/23 08:05:39;;;;;;;13.75;4.95;;;38.10;99.90;;;;;;5050710;28;20889;-56
2022/06/23 08:08:10;;;;;;;15.65;9.40;;;37.50;99.90;;;;;;5051612;28;20382;-56
2022/06/23 08:10:36;;;;;;;13.73;8.10;;;36.50;99.90;;;;;;5051888;28;20408;-58
2022/06/23 08:13:12;;;;;;;15.00;8.30;;;37.00;99.90;;;;;;5051813;28;20377;-56
2022/06/23 08:18:56;;;;;;;14.23;9.45;;;37.50;99.90;;;;;;5051639;28;20782;-56
2022/06/23 08:21:26;;;;;;;10.13;6.32;;;36.80;99.90;;;;;;5051535;28;20786;-57
2022/06/23 08:24:11;;;;;;;11.73;7.10;;;36.90;99.90;;;;;;5051554;28;20432;-56
2022/06/23 08:26:41;;;;;;;12.98;5.30;;;37.40;99.90;;;;;;5051351;28;20413;-56
2022/06/23 08:29:11;;;;;;;14.82;5.22;;;36.20;99.90;;;;;;5051428;28;20377;-57
2022/06/23 08:31:38;;;;;;;12.77;5.10;;;35.80;99.90;;;;;;5051262;28;20889;-58
2022/06/23 08:34:04;;;;;;;11.20;4.38;;;36.90;99.90;;;;;;5051795;28;20393;-57
2022/06/23 08:36:47;;;;;;;10.63;4.20;;;36.70;99.90;;;;;;5032398;28;20440;-57
2022/06/23 08:39:19;;;;;;;11.05;4.53;;;36.90;99.90;;;;;;5050891;28;20369;-57
2022/06/23 08:41:56;;;;;;;11.27;4.40;;;37.20;99.90;;;;;;5051503;28;20386;-57
2022/06/23 08:44:45;;;;;;;12.90;4.55;;;37.60;99.90;;;;;;5033375;28;20417;-57
2022/06/23 08:47:35;;;;;;;11.07;4.30;;;37.70;99.90;;;;;;5049342;28;20397;-58
2022/06/23 08:50:35;;;;;;;9.82;4.20;;;38.10;99.90;;;;;;5051567;28;20843;-57
2022/06/23 08:53:17;;;;;;;9.60;5.10;;;38.50;99.90;;;;;;5043448;28;20409;-57
2022/06/23 08:56:06;;;;;;;13.05;4.97;;;39.00;99.90;;;;;;5051006;28;20415;-57
2022/06/23 08:58:50;;;;;;;9.77;3.35;;;40.00;99.90;;;;;;5050355;28;20401;-57
2022/06/23 09:01:16;;;;;;;12.00;4.50;;;40.30;99.90;;;;;;5050655;28;20382;-57
2022/06/23 09:04:06;;;;;;;12.50;4.70;;;40.50;99.90;;;;;;5051103;28;20412;-57
2022/06/23 09:06:38;;;;;;;13.10;4.97;;;40.60;99.90;;;;;;5050190;28;20369;-57
2022/06/23 09:09:03;;;;;;;17.20;5.38;;;39.90;99.90;;;;;;5051410;28;20382;-57
2022/06/23 09:12:12;;;;;;;11.05;4.50;;;39.10;99.90;;;;;;5050328;28;20867;-58
2022/06/23 09:14:38;;;;;;;10.45;3.95;;;39.40;99.90;;;;;;5008533;28;20400;-57
2022/06/23 09:17:26;;;;;;;13.38;4.53;;;39.20;99.90;;;;;;5041145;28;20389;-58
2022/06/23 09:20:29;;;;;;;11.43;4.50;;;39.70;99.90;;;;;;5033104;28;20400;-57
2022/06/23 09:23:37;;;;;;;10.68;3.75;;;39.90;99.90;;;;;;5050070;28;20456;-58
2022/06/23 09:26:16;;;;;;;9.57;2.97;;;39.20;99.90;;;;;;5050626;28;20479;-57
2022/06/23 09:28:57;;;;;;;10.68;3.70;;;40.00;99.90;;;;;;5050629;28;20382;-58
2022/06/23 09:31:40;;;;;;;9.43;4.00;;;39.90;99.90;;;;;;5049549;28;20447;-58
2022/06/23 09:34:09;;;;;;;12.85;4.15;;;40.40;99.90;;;;;;5050442;28;20385;-58
2022/06/23 09:36:55;;;;;;;12.95;3.55;;;40.40;99.90;;;;;;5049826;28;20452;-57
2022/06/23 09:39:42;;;;;;;11.38;3.40;;;40.50;99.90;;;;;;5049392;28;20393;-58
2022/06/23 09:42:49;;;;;;;11.00;3.38;;;40.20;99.90;;;;;;5050627;28;20380;-58
2022/06/23 09:45:28;;;;;;;10.15;2.90;;;39.90;99.90;;;;;;5049532;28;20413;-58
2022/06/23 09:48:17;;;;;;;10.63;3.47;;;39.90;99.90;;;;;;5050413;28;20389;-58
2022/06/23 09:50:51;;;;;;;9.90;3.75;;;40.20;99.90;;;;;;5049943;28;20381;-58
2022/06/23 09:53:31;;;;;;;10.23;3.70;;;40.40;99.90;;;;;;5049443;28;20398;-57
2022/06/23 09:56:14;;;;;;;11.82;3.53;;;40.10;99.90;;;;;;5050252;28;20695;-58
2022/06/23 09:59:15;;;;;;;9.98;3.70;;;39.70;99.90;;;;;;5049913;28;20398;-58
2022/06/23 10:02:01;;;;;;;9.90;3.00;;;40.20;99.90;;;;;;4987916;28;20386;-57
2022/06/23 10:04:38;;;;;;;12.88;7.70;;;40.20;99.90;;;;;;5044484;28;20504;-58
2022/06/23 10:07:35;;;;;;;13.60;8.70;;;39.30;99.90;;;;;;5049244;28;20377;-57
2022/06/23 10:10:22;;;;;;;9.47;3.20;;;38.90;99.90;;;;;;5049757;28;20388;-58
2022/06/23 10:13:06;;;;;;;14.00;7.40;;;38.60;99.90;;;;;;5050127;28;20382;-58
2022/06/23 10:16:02;;;;;;;13.35;8.68;;;38.70;99.90;;;;;;5029782;28;20891;-58
2022/06/23 10:18:34;;;;;;;10.73;3.80;;;39.00;99.90;;;;;;5029265;28;20410;-58
2022/06/23 10:21:23;;;;;;;13.23;3.80;;;39.00;99.90;;;;;;5011926;28;20474;-58
2022/06/23 10:24:11;;;;;;;10.15;4.20;;;38.40;99.90;;;;;;5029069;28;20422;-57
2022/06/23 10:27:02;;;;;;;12.20;3.67;;;38.00;99.90;;;;;;5029874;28;20395;-58
2022/06/23 10:29:54;;;;;;;12.60;3.60;;;37.30;99.90;;;;;;5032017;28;20375;-56
2022/06/23 10:32:31;;;;;;;10.25;7.20;;;37.10;99.90;;;;;;5033231;28;20375;-58
2022/06/23 10:35:13;;;;;;;12.75;7.90;;;36.70;99.90;;;;;;5033457;28;20393;-58
2022/06/23 10:38:04;;;;;;;10.83;7.50;;;36.20;99.90;;;;;;5015852;28;20740;-58
2022/06/23 10:40:51;;;;;;;13.52;8.45;;;35.50;99.90;;;;;;5033703;28;20746;-57
2022/06/23 10:43:41;;;;;;;14.23;8.50;;;34.50;99.90;;;;;;5033190;28;20776;-58
2022/06/23 10:46:22;;;;;;;14.40;8.40;;;33.50;99.90;;;;;;5034285;28;20383;-58
2022/06/23 10:48:57;;;;;;;11.33;7.70;;;33.20;99.90;;;;;;5033450;28;20883;-58
2022/06/23 10:51:58;;;;;;;13.38;7.22;;;33.00;99.90;;;;;;5033329;28;20965;-57
2022/06/23 10:54:26;;;;;;;13.80;6.70;;;32.80;99.90;;;;;;5032904;28;20425;-57
2022/06/23 10:57:01;;;;;;;11.45;7.40;;;33.10;99.90;;;;;;5033226;28;20849;-57
2022/06/23 10:59:44;;;;;;;11.70;6.90;;;33.00;99.90;;;;;;5032225;28;20387;-57
2022/06/23 11:02:28;;;;;;;13.20;6.45;;;33.10;99.90;;;;;;5033283;28;20467;-57
2022/06/23 11:05:30;;;;;;;12.20;6.67;;;32.90;99.90;;;;;;5033304;28;20438;-57
2022/06/23 11:08:14;;;;;;;11.65;6.60;;;32.40;99.90;;;;;;5032650;28;20387;-55
2022/06/23 11:11:02;;;;;;;12.32;7.10;;;32.10;99.90;;;;;;5032533;28;20845;-55
2022/06/23 11:13:30;;;;;;;11.27;6.72;;;32.00;99.90;;;;;;5036671;28;20866;-56
2022/06/23 11:16:07;;;;;;;14.15;6.50;;;31.50;99.90;;;;;;5052818;28;20384;-55
2022/06/23 11:18:33;;;;;;;12.70;6.60;;;31.70;99.90;;;;;;5052464;28;20846;-55
2022/06/23 11:21:35;;;;;;;12.60;6.30;;;31.70;99.90;;;;;;5052366;28;20411;-55
2022/06/23 11:24:17;;;;;;;11.88;7.18;;;32.00;99.90;;;;;;5052147;28;20413;-55
2022/06/23 11:27:10;;;;;;;13.00;6.13;;;32.00;99.90;;;;;;5052136;28;20400;-55
2022/06/23 11:29:53;;;;;;;13.83;6.73;;;31.90;99.90;;;;;;5051843;28;20374;-55
2022/06/23 11:32:38;;;;;;;17.35;7.22;;;32.00;99.90;;;;;;5052256;28;20373;-55
2022/06/23 11:35:35;;;;;;;14.43;6.20;;;32.00;99.90;;;;;;5052119;28;20567;-55
2022/06/23 11:38:10;;;;;;;11.30;5.80;;;32.10;99.90;;;;;;5052198;28;20510;-55
2022/06/23 11:40:50;;;;;;;13.40;6.50;;;32.20;99.90;;;;;;5051298;28;20928;-55
2022/06/23 11:43:22;;;;;;;13.73;6.32;;;32.00;99.90;;;;;;5051638;28;20497;-55
2022/06/23 11:46:00;;;;;;;15.93;7.00;;;31.90;99.90;;;;;;5051862;28;20755;-55
2022/06/23 11:48:51;;;;;;;11.10;6.72;;;32.00;99.90;;;;;;5051554;28;20914;-55
2022/06/23 11:51:32;;;;;;;11.13;6.43;;;32.00;99.90;;;;;;5042683;28;20404;-55
2022/06/23 11:54:06;;;;;;;10.40;6.03;;;32.00;99.90;;;;;;5051437;28;20400;-56
2022/06/23 11:56:57;;;;;;;10.88;6.80;;;32.00;99.90;;;;;;5051221;28;21077;-56
2022/06/23 11:59:55;;;;;;;9.68;6.22;;;32.00;99.90;;;;;;5051677;28;20423;-56
2022/06/23 12:02:21;;;;;;;11.27;6.72;;;32.00;99.90;;;;;;5051700;28;20548;-56
2022/06/23 12:05:08;;;;;;;11.80;6.77;;;32.00;99.90;;;;;;5034281;28;20480;-56
2022/06/23 12:08:02;;;;;;;11.95;6.82;;;32.20;99.90;;;;;;5050885;28;20369;-55
2022/06/23 12:10:32;;;;;;;10.80;6.38;;;32.30;99.90;;;;;;5050965;28;20386;-56
2022/06/23 12:13:02;;;;;;;13.50;7.35;;;32.30;99.90;;;;;;5051381;28;20374;-56
2022/06/23 12:15:32;;;;;;;15.20;6.97;;;32.20;99.90;;;;;;5050778;28;20389;-56
2022/06/23 12:18:50;;;;;;;11.30;6.00;;;32.20;99.90;;;;;;5051663;28;20830;-56
2022/06/23 12:21:40;;;;;;;12.52;6.72;;;32.20;99.90;;;;;;5008962;28;20400;-57
2022/06/23 12:24:22;;;;;;;14.60;6.20;;;32.40;99.90;;;;;;5051454;28;20422;-56
2022/06/23 12:26:54;;;;;;;13.20;6.40;;;32.20;99.90;;;;;;5051755;28;20469;-56
2022/06/23 12:29:49;;;;;;;13.77;7.47;;;32.00;99.90;;;;;;5050589;28;20460;-56
2022/06/23 12:32:39;;;;;;;12.03;6.60;;;32.00;99.90;;;;;;5050861;28;20390;-57
2022/06/23 12:35:10;;;;;;;14.93;6.38;;;31.90;99.90;;;;;;5051311;28;20389;-56
2022/06/23 12:37:44;;;;;;;12.55;7.70;;;32.40;99.90;;;;;;5050843;28;20468;-57
2022/06/23 12:40:22;;;;;;;11.55;6.50;;;32.70;99.90;;;;;;5051289;28;20382;-56
2022/06/23 12:43:17;;;;;;;13.10;6.60;;;32.50;99.90;;;;;;5050807;28;20370;-56
2022/06/23 12:46:06;;;;;;;14.48;7.10;;;32.40;99.90;;;;;;5050904;28;20759;-56
2022/06/23 12:49:02;;;;;;;13.70;6.50;;;32.40;99.90;;;;;;5050313;28;20382;-57
2022/06/23 12:51:36;;;;;;;13.10;7.22;;;32.60;99.90;;;;;;5049496;28;20378;-56
2022/06/23 12:54:23;;;;;;;10.82;6.30;;;32.80;99.90;;;;;;5050643;28;20882;-56
2022/06/23 12:56:54;;;;;;;12.27;5.97;;;32.80;99.90;;;;;;5050837;28;20464;-56
2022/06/23 12:59:52;;;;;;;14.35;6.90;;;32.50;99.90;;;;;;5050357;28;20405;-56
2022/06/23 13:02:33;;;;;;;17.00;6.00;;;32.50;99.90;;;;;;5026893;28;20393;-57
2022/06/23 13:05:13;;;;;;;11.70;6.03;;;32.40;99.90;;;;;;5050897;28;20409;-56
2022/06/23 13:07:58;;;;;;;10.75;6.07;;;32.30;99.90;;;;;;5050038;28;20371;-56
2022/06/23 13:10:51;;;;;;;12.20;7.13;;;32.40;99.90;;;;;;5050080;28;20401;-56
2022/06/23 13:13:24;;;;;;;16.77;6.93;;;32.60;99.90;;;;;;5049827;28;20389;-58
2022/06/23 13:16:04;;;;;;;12.98;6.53;;;32.70;99.90;;;;;;5050243;28;20377;-56
2022/06/23 13:18:37;;;;;;;11.07;6.30;;;32.80;99.90;;;;;;5050067;28;20393;-56
2022/06/23 13:21:36;;;;;;;12.77;6.50;;;32.70;99.90;;;;;;5050406;28;20393;-56
2022/06/23 13:24:08;;;;;;;12.35;6.65;;;32.60;99.90;;;;;;5017249;28;20885;-56
2022/06/23 13:26:51;;;;;;;12.00;6.20;;;32.90;99.90;;;;;;5050011;28;20563;-56
2022/06/23 13:29:20;;;;;;;11.52;6.30;;;32.90;99.90;;;;;;5049856;28;20396;-57
2022/06/23 13:32:11;;;;;;;14.50;6.55;;;32.80;99.90;;;;;;5050135;28;20477;-56
2022/06/23 13:35:09;;;;;;;12.95;6.90;;;32.60;99.90;;;;;;5050078;28;20668;-56
2022/06/23 13:37:50;;;;;;;16.23;7.70;;;32.50;99.90;;;;;;5036216;28;20389;-56
2022/06/23 13:40:35;;;;;;;16.40;7.90;;;32.50;99.90;;;;;;5049675;28;20500;-58
2022/06/23 13:43:43;;;;;;;12.95;6.90;;;32.20;99.90;;;;;;5050475;28;20389;-56
2022/06/23 13:46:34;;;;;;;12.50;7.50;;;31.90;99.90;;;;;;4988187;28;20416;-56
2022/06/23 13:49:23;;;;;;;13.27;6.93;;;31.90;99.90;;;;;;5022033;28;20480;-56